Casa Blanca, California
Current Conditions -  °F | °C
As of 10:53 AM on Thursday 18 Dec 2014 (Local Time) from KRAL Reporting Station
Scattered Clouds Scattered Clouds  
Wind Chill: 58°   Ceiling: Unl
Heat Index: 58°   Visibility: 10mi
Dew Point: 44°   Wind: 0mph
Humidity: 60%   Direction: NA
Pressure: 30.19"   Gusts: NA
Location:  33.9119°N, 117.4°W
Report Text: KRAL 181853Z 00000KT 10SM SCT040 14/07 A3019 RMK AO2 SLP215 T01440067
Loading
Personal Weather Stations






























Interactive Weather Map New forecast layout! Learn more

10-Day Weather Forecast

Advertisements
Track Severe Weather on mobile